首页
METAR-TAF:

METAR-TAF

机场 :

波羅克瓦尼國際機場

波羅克瓦尼, 南非共和國

纬度: 23-50-43S, 经度: 29-27-31E, 海拔: 1242米

当前天气观测

该预报发布于1小时和0分钟前的00:00 UTC
风速5节,风向南转西南
温度 4°C
湿度 75%
气压 1030 hPa

METAR: FAPP 130000Z AUTO 20005KT //// // ////// 04/M00 Q1030

时间: 03:00 (01:00 UTC)

预报

该预报发布于16小时和0分钟前的09:00 UTC
预报有效从12日的 10点(UTC)到 12日的 18点(UTC)
风速3节,风向多变
能见度10公里或以上
1500米以下无云,无积雨云

TAF: FAPP 120900Z 1210/1218 VRB03KT CAVOK TX20/1213Z TN09/1218Z

超过4000个机场的气象观测和天气预报(METAR&TAF报告)。

可查询的气象台以黄色和红色小点在地图上表示。

将鼠标移到小点上方,可查看气象台名称。

然后点击查看天气观测和预报。

如需切换地图:点击带黑十字的绿色按钮放大地图;点击带横线的绿色按钮缩小地图;或者点击绿色箭头查看邻近地区的地图。


METAR-TAF: